Time;durP1;ratioP1;P1;durP2;ratioP2;P2;SDS_P1;SDS_P2;PMS_P1;PMS_P2;Temp;Humidity;BMP_temperature;BMP_pressure;BME280_temperature;BME280_humidity;BME280_pressure;Samples;Min_cycle;Max_cycle;Signal;HPM_P1;HPM_P2
2021/04/01 00:01:12;;;;;;;;;;;;;;;15.15;44.26;101255.97;4977420;28;7218;-76
2021/04/01 00:03:41;;;;;;;;;;;;;;;15.12;44.19;101261.19;4976493;28;7272;-76
2021/04/01 00:06:07;;;;;;;;;;;;;;;15.06;44.41;101256.75;4975653;28;7511;-76
2021/04/01 00:08:33;;;;;;;;;;;;;;;15.02;44.54;101261.94;4976585;28;7202;-77
2021/04/01 00:10:59;;;;;;;;;;;;;;;15.00;44.81;101261.00;4981968;28;7025;-76
2021/04/01 00:13:24;;;;;;;;;;;;;;;14.93;44.71;101246.97;4981290;28;7211;-76
2021/04/01 00:15:52;;;;;;;;;;;;;;;14.86;44.68;101253.88;4981448;28;7368;-77
2021/04/01 00:18:21;;;;;;;;;;;;;;;14.85;45.42;101246.88;4980111;28;7959;-77
2021/04/01 00:20:46;;;;;;;;;;;;;;;14.82;45.15;101246.84;4980763;28;7159;-76
2021/04/01 00:23:12;;;;;;;;;;;;;;;14.77;44.99;101240.66;4980815;28;6783;-76
2021/04/01 00:25:38;;;;;;;;;;;;;;;14.74;45.24;101239.75;4969903;28;7448;-76
2021/04/01 00:28:03;;;;;;;;;;;;;;;14.70;45.57;101237.94;4982820;28;7415;-76
2021/04/01 00:30:29;;;;;;;;;;;;;;;14.66;45.19;101237.03;4965220;28;8492;-76
2021/04/01 00:32:55;;;;;;;;;;;;;;;14.65;45.72;101243.13;4981629;28;7184;-77
2021/04/01 00:35:20;;;;;;;;;;;;;;;14.56;45.23;101238.63;4980396;28;6946;-77
2021/04/01 00:37:46;;;;;;;;;;;;;;;14.57;45.83;101240.38;4970166;28;6943;-76
2021/04/01 00:40:12;;;;;;;;;;;;;;;14.52;45.13;101233.31;4981021;28;7470;-77
2021/04/01 00:42:37;;;;;;;;;;;;;;;14.55;45.65;101238.59;4977758;28;7137;-76
2021/04/01 00:45:08;;;;;;;;;;;;;;;14.50;45.61;101240.28;4982027;28;7105;-77
2021/04/01 00:47:37;;;;;;;;;;;;;;;14.39;46.03;101231.34;4978373;28;7858;-76
2021/04/01 00:50:04;;;;;;;;;;;;;;;14.37;45.50;101238.28;4978469;28;6811;-76
2021/04/01 00:52:29;;;;;;;;;;;;;;;14.36;45.85;101244.34;4980210;28;6776;-77
2021/04/01 00:54:55;;;;;;;;;;;;;;;14.28;46.19;101242.53;4979294;28;7115;-76
2021/04/01 00:57:20;;;;;;;;;;;;;;;14.27;45.59;101242.50;4978046;28;7333;-77
2021/04/01 00:59:46;;;;;;;;;;;;;;;14.21;45.77;101230.19;4983680;28;7539;-77
2021/04/01 01:02:11;;;;;;;;;;;;;;;14.18;46.17;101230.16;5010725;28;6851;-77
2021/04/01 01:04:37;;;;;;;;;;;;;;;14.16;46.27;101224.03;4995175;28;6779;-77
2021/04/01 01:07:03;;;;;;;;;;;;;;;14.15;46.31;101219.66;5011044;28;7502;-76
2021/04/01 01:09:28;;;;;;;;;;;;;;;14.13;46.15;101223.97;4980113;28;7440;-76
2021/04/01 01:11:54;;;;;;;;;;;;;;;14.04;46.62;101218.63;4980332;28;11280;-77
2021/04/01 01:14:19;;;;;;;;;;;;;;;14.05;45.98;101228.22;4983405;28;7044;-77
2021/04/01 01:16:46;;;;;;;;;;;;;;;14.04;46.48;101226.47;4980391;28;6889;-76
2021/04/01 01:19:12;;;;;;;;;;;;;;;13.98;46.33;101215.88;4983487;28;7007;-76
2021/04/01 01:21:38;;;;;;;;;;;;;;;13.92;46.96;101221.00;4981600;28;7297;-76
2021/04/01 01:24:13;;;;;;;;;;;;;;;13.90;46.83;101212.28;4993329;28;6915;-75
2021/04/01 01:26:39;;;;;;;;;;;;;;;13.85;47.00;101221.78;4965945;28;7086;-76
2021/04/01 01:29:05;;;;;;;;;;;;;;;13.84;46.83;101223.50;4968841;28;7617;-76
2021/04/01 01:31:31;;;;;;;;;;;;;;;13.95;46.21;101228.88;4980410;28;9409;-76
2021/04/01 01:33:57;;;;;;;;;;;;;;;13.84;46.96;101231.34;4979668;28;6807;-76
2021/04/01 01:36:22;;;;;;;;;;;;;;;13.79;46.80;101232.09;4978574;28;6811;-76
2021/04/01 01:38:48;;;;;;;;;;;;;;;13.75;47.29;101227.66;4979806;28;8521;-76
2021/04/01 01:41:13;;;;;;;;;;;;;;;13.68;47.23;101227.56;4976168;28;7307;-76
2021/04/01 01:43:39;;;;;;;;;;;;;;;13.67;47.27;101231.03;4980309;28;7234;-76
2021/04/01 01:46:04;;;;;;;;;;;;;;;13.66;46.76;101233.63;4994502;28;6877;-75
2021/04/01 01:48:30;;;;;;;;;;;;;;;13.60;46.95;101239.56;4981677;28;6957;-76
2021/04/01 01:50:58;;;;;;;;;;;;;;;13.55;47.30;101233.41;4982176;28;7323;-76
2021/04/01 01:53:23;;;;;;;;;;;;;;;13.53;46.95;101226.41;4978165;28;7075;-76
2021/04/01 01:55:49;;;;;;;;;;;;;;;13.53;47.82;101223.78;4975430;28;7169;-76
2021/04/01 01:58:14;;;;;;;;;;;;;;;13.47;47.56;101223.69;4969585;28;7028;-75
2021/04/01 02:00:45;;;;;;;;;;;;;;;13.48;47.31;101223.72;4977726;28;7163;-76
2021/04/01 02:03:11;;;;;;;;;;;;;;;13.49;47.70;101221.97;5007974;28;7511;-76
2021/04/01 02:05:36;;;;;;;;;;;;;;;13.50;47.40;101221.13;4975612;28;7343;-76
2021/04/01 02:08:03;;;;;;;;;;;;;;;13.53;46.89;101222.06;4993295;28;7250;-76
2021/04/01 02:10:33;;;;;;;;;;;;;;;13.42;47.36;101220.13;4981373;28;6826;-76
2021/04/01 02:12:58;;;;;;;;;;;;;;;13.34;47.92;101220.81;4981317;28;7153;-76
2021/04/01 02:15:26;;;;;;;;;;;;;;;13.35;47.50;101217.38;4992471;28;8122;-76
2021/04/01 02:17:51;;;;;;;;;;;;;;;13.36;47.71;101220.84;4993697;28;7774;-76
2021/04/01 02:20:17;;;;;;;;;;;;;;;13.38;47.55;101226.97;4978703;28;8653;-76
2021/04/01 02:22:42;;;;;;;;;;;;;;;13.27;47.97;101221.56;4993672;28;6926;-76
2021/04/01 02:25:08;;;;;;;;;;;;;;;13.30;47.32;101225.97;4978980;28;7305;-75
2021/04/01 02:27:34;;;;;;;;;;;;;;;13.27;47.86;101226.78;4981111;28;6856;-76
2021/04/01 02:30:00;;;;;;;;;;;;;;;13.27;47.44;101233.72;4977870;28;12848;-76
2021/04/01 02:32:25;;;;;;;;;;;;;;;13.24;47.77;101231.06;4979569;28;7214;-76
2021/04/01 02:34:51;;;;;;;;;;;;;;;13.20;47.80;101234.44;4991690;28;6796;-76
2021/04/01 02:37:16;;;;;;;;;;;;;;;13.17;48.32;101231.72;4977323;28;6813;-76
2021/04/01 02:39:42;;;;;;;;;;;;;;;13.18;47.91;101230.91;4977033;28;6926;-76
2021/04/01 02:42:08;;;;;;;;;;;;;;;13.17;47.95;101221.31;4992757;28;6968;-76
2021/04/01 02:44:34;;;;;;;;;;;;;;;13.05;48.13;101219.34;4996341;28;7246;-76
2021/04/01 02:46:59;;;;;;;;;;;;;;;13.12;48.29;101220.34;4997023;28;6776;-76
2021/04/01 02:49:25;;;;;;;;;;;;;;;13.07;48.02;101221.13;4972447;28;6820;-76
2021/04/01 02:51:50;;;;;;;;;;;;;;;13.01;47.78;101221.00;4960880;28;6803;-75
2021/04/01 02:54:17;;;;;;;;;;;;;;;13.01;48.33;101222.72;4977820;28;7215;-76
2021/04/01 02:56:42;;;;;;;;;;;;;;;12.98;48.53;101214.81;4980204;28;6872;-76
2021/04/01 02:59:09;;;;;;;;;;;;;;;13.02;48.44;101217.56;4977337;28;7324;-76
2021/04/01 03:01:36;;;;;;;;;;;;;;;13.02;48.03;101216.69;5009275;28;6926;-76
2021/04/01 03:04:04;;;;;;;;;;;;;;;12.95;48.21;101219.97;4980281;28;11054;-76
2021/04/01 03:06:29;;;;;;;;;;;;;;;12.97;48.51;101218.28;4979496;28;6840;-76
2021/04/01 03:08:55;;;;;;;;;;;;;;;12.98;48.49;101225.25;4975729;28;7059;-76
2021/04/01 03:11:22;;;;;;;;;;;;;;;12.99;48.49;101219.19;4976369;28;7277;-76
2021/04/01 03:13:47;;;;;;;;;;;;;;;12.91;47.99;101219.03;4975977;28;6796;-76
2021/04/01 03:16:13;;;;;;;;;;;;;;;12.90;48.73;101221.63;4978223;28;7526;-76
2021/04/01 03:18:38;;;;;;;;;;;;;;;12.85;48.67;101218.03;4978267;28;6909;-76
2021/04/01 03:21:04;;;;;;;;;;;;;;;12.89;48.03;101222.47;4978523;28;6883;-76
2021/04/01 03:23:30;;;;;;;;;;;;;;;12.81;48.24;101219.69;4977366;28;7511;-76
2021/04/01 03:25:56;;;;;;;;;;;;;;;12.77;48.66;101217.84;4979205;28;7087;-76
2021/04/01 03:28:22;;;;;;;;;;;;;;;12.78;48.67;101219.63;4980691;28;7071;-76
2021/04/01 03:30:59;;;;;;;;;;;;;;;12.76;48.84;101219.59;4978018;28;7309;-76
2021/04/01 03:33:24;;;;;;;;;;;;;;;12.75;48.70;101223.03;4969665;28;7102;-76
2021/04/01 03:35:50;;;;;;;;;;;;;;;12.71;48.48;101223.81;4979155;28;7083;-76
2021/04/01 03:38:17;;;;;;;;;;;;;;;12.66;48.67;101219.38;4976866;28;7170;-76
2021/04/01 03:40:43;;;;;;;;;;;;;;;12.63;48.85;101221.91;4978144;28;7336;-75
2021/04/01 03:43:08;;;;;;;;;;;;;;;12.65;48.49;101228.03;4976540;28;7278;-76
2021/04/01 03:45:34;;;;;;;;;;;;;;;12.64;49.05;101226.28;4978156;28;7803;-76
2021/04/01 03:47:59;;;;;;;;;;;;;;;12.61;48.99;101228.78;4973384;28;6833;-76
2021/04/01 03:50:25;;;;;;;;;;;;;;;12.60;49.39;101221.81;4979670;28;7194;-76
2021/04/01 03:52:50;;;;;;;;;;;;;;;12.61;48.62;101224.44;4977554;28;7020;-75
2021/04/01 04:09:14;;;;;;;;;;;;;;;12.37;49.80;101230.00;4978730;28;11153;-76
2021/04/01 04:11:46;;;;;;;;;;;;;;;12.39;49.12;101232.63;4978127;28;13214;-76
2021/04/01 04:16:37;;;;;;;;;;;;;;;12.38;49.06;101221.31;4977050;28;6844;-76
2021/04/01 04:19:04;;;;;;;;;;;;;;;12.47;49.46;101218.94;5006292;28;7098;-76
2021/04/01 04:21:29;;;;;;;;;;;;;;;12.34;49.69;101216.91;5008392;28;7699;-76
2021/04/01 04:23:55;;;;;;;;;;;;;;;12.43;49.54;101224.06;4976658;28;7027;-76
2021/04/01 04:26:22;;;;;;;;;;;;;;;12.41;49.34;101224.03;4975210;28;8582;-76
2021/04/01 04:28:48;;;;;;;;;;;;;;;12.46;48.96;101229.34;4977005;28;7099;-75
2021/04/01 04:31:13;;;;;;;;;;;;;;;12.37;48.92;101227.38;4991387;28;6788;-75
2021/04/01 04:33:39;;;;;;;;;;;;;;;12.31;49.29;101229.84;4975836;28;7120;-76
2021/04/01 04:36:05;;;;;;;;;;;;;;;12.42;49.47;101220.59;4976820;28;6800;-75
2021/04/01 04:38:30;;;;;;;;;;;;;;;12.37;49.78;101226.50;4989077;28;7354;-75
2021/04/01 04:40:57;;;;;;;;;;;;;;;12.30;49.50;101222.00;4974512;28;7215;-76
2021/04/01 04:43:26;;;;;;;;;;;;;;;12.30;49.40;101232.41;4990944;28;7248;-76
2021/04/01 04:45:52;;;;;;;;;;;;;;;12.27;49.79;101235.84;4991938;28;6879;-76
2021/04/01 04:48:17;;;;;;;;;;;;;;;12.31;49.76;101236.78;4974027;28;8157;-76
2021/04/01 04:50:43;;;;;;;;;;;;;;;12.31;49.78;101235.06;4991862;28;7383;-76
2021/04/01 04:53:09;;;;;;;;;;;;;;;12.14;50.16;101239.84;4975990;28;7015;-76
2021/04/01 04:55:37;;;;;;;;;;;;;;;12.17;49.38;101237.31;5006356;28;7910;-76
2021/04/01 05:05:47;;;;;;;;;;;;;;;12.23;50.12;101252.25;4993866;28;11138;-76
2021/04/01 05:08:13;;;;;;;;;;;;;;;12.21;49.99;101256.50;4980433;28;7287;-76
2021/04/01 05:10:38;;;;;;;;;;;;;;;12.26;49.42;101257.50;4980775;28;6922;-76
2021/04/01 05:13:08;;;;;;;;;;;;;;;12.28;49.48;101258.44;4983100;28;7396;-76
2021/04/01 05:15:40;;;;;;;;;;;;;;;12.25;49.41;101260.97;4979932;28;11484;-76
2021/04/01 05:18:14;;;;;;;;;;;;;;;12.29;50.12;101267.13;5011103;28;11607;-76
2021/04/01 05:20:41;;;;;;;;;;;;;;;12.19;49.46;101260.78;4980256;28;11249;-74
2021/04/01 05:23:12;;;;;;;;;;;;;;;12.27;49.72;101264.47;4984055;28;7447;-77
2021/04/01 05:25:38;;;;;;;;;;;;;;;12.23;49.49;101274.78;4997753;28;12686;-77
2021/04/01 05:28:19;;;;;;;;;;;;;;;12.30;49.65;101274.09;5010509;28;11046;-77
2021/04/01 05:30:45;;;;;;;;;;;;;;;12.24;49.91;101268.75;4978817;28;11043;-76
2021/04/01 05:33:11;;;;;;;;;;;;;;;12.25;49.58;101267.91;4980080;28;7131;-76
2021/04/01 05:35:37;;;;;;;;;;;;;;;12.28;50.16;101271.44;4996364;28;7034;-76
2021/04/01 05:38:02;;;;;;;;;;;;;;;12.20;50.10;101265.16;4981347;28;7088;-75
2021/04/01 05:40:28;;;;;;;;;;;;;;;12.31;49.76;101265.44;4981069;28;7324;-75
2021/04/01 05:42:55;;;;;;;;;;;;;;;12.22;49.74;101266.09;4998877;28;6936;-75
2021/04/01 05:45:27;;;;;;;;;;;;;;;12.38;49.12;101278.63;4981480;28;7404;-75
2021/04/01 05:47:57;;;;;;;;;;;;;;;12.33;49.40;101280.25;4985917;28;7307;-74
2021/04/01 06:04:31;;;;;;;;;;;;;;;12.48;49.21;101297.97;4982701;28;11236;-75
2021/04/01 06:07:01;;;;;;;;;;;;;;;12.48;49.21;101301.47;5013144;28;7221;-75
2021/04/01 06:09:29;;;;;;;;;;;;;;;12.46;49.44;101303.16;4992299;28;6963;-74
2021/04/01 06:11:57;;;;;;;;;;;;;;;12.48;48.92;101301.47;4993125;28;7060;-76
2021/04/01 06:14:58;;;;;;;;;;;;;;;12.58;49.30;101301.66;4984642;28;7111;-75
2021/04/01 06:17:25;;;;;;;;;;;;;;;12.78;48.25;101290.00;4979282;28;11174;-73
2021/04/01 06:19:53;;;;;;;;;;;;;;;12.91;48.31;101292.03;4979842;28;6876;-73
2021/04/01 06:22:19;;;;;;;;;;;;;;;12.98;48.03;101296.53;4978667;28;7370;-73
2021/04/01 06:24:45;;;;;;;;;;;;;;;12.96;47.85;101299.94;4990037;28;7206;-73
2021/04/01 06:27:18;;;;;;;;;;;;;;;13.05;47.67;101292.34;4978654;28;7243;-73
2021/04/01 06:32:32;;;;;;;;;;;;;;;13.14;47.60;101302.09;4970249;28;7397;-73
2021/04/01 06:35:08;;;;;;;;;;;;;;;13.20;47.30;101304.84;4980513;28;6974;-73
2021/04/01 06:40:03;;;;;;;;;;;;;;;13.29;47.05;101318.09;5007177;28;6788;-72
2021/04/01 06:42:33;;;;;;;;;;;;;;;13.28;46.77;101313.72;4976626;28;7095;-72
2021/04/01 06:45:07;;;;;;;;;;;;;;;13.35;46.59;101324.31;4990101;28;6819;-73
2021/04/01 06:47:33;;;;;;;;;;;;;;;13.40;47.13;101313.97;4980426;28;6875;-71
2021/04/01 06:50:16;;;;;;;;;;;;;;;13.43;46.49;101323.63;5008632;28;7218;-73
2021/04/01 06:52:48;;;;;;;;;;;;;;;13.42;46.77;101325.34;4990571;28;11456;-73
2021/04/01 06:55:33;;;;;;;;;;;;;;;13.43;46.97;101323.63;5009301;28;6823;-73
2021/04/01 06:58:29;;;;;;;;;;;;;;;13.51;46.66;101317.69;4992777;28;6824;-73
2021/04/01 07:01:22;;;;;;;;;;;;;;;13.55;46.41;101319.50;5003575;28;11363;-73
2021/04/01 07:03:48;;;;;;;;;;;;;;;13.63;46.33;101315.34;4991234;28;11004;-73
2021/04/01 07:06:26;;;;;;;;;;;;;;;13.71;45.92;101323.31;4969453;28;6824;-73
2021/04/01 07:08:59;;;;;;;;;;;;;;;13.76;45.69;101329.50;5006418;28;7170;-73
2021/04/01 07:11:37;;;;;;;;;;;;;;;13.77;46.23;101319.94;4979097;28;7839;-72
2021/04/01 07:14:09;;;;;;;;;;;;;;;13.84;45.63;101314.00;5009434;28;8791;-73
2021/04/01 07:36:01;;;;;;;;;;;;;;;14.24;44.50;101302.53;4936759;28;12521;-72
2021/04/01 07:46:48;;;;;;;;;;;;;;;14.42;44.61;101308.06;4975785;28;11273;-72
2021/04/01 07:49:18;;;;;;;;;;;;;;;14.48;44.80;101300.34;4991380;28;7413;-72
2021/04/01 07:51:59;;;;;;;;;;;;;;;14.48;44.78;101299.47;4974407;28;11154;-72
2021/04/01 07:54:33;;;;;;;;;;;;;;;14.50;44.39;101305.59;4978138;28;7070;-72
2021/04/01 07:57:16;;;;;;;;;;;;;;;14.56;44.23;101308.31;4976791;28;6967;-73
2021/04/01 07:59:53;;;;;;;;;;;;;;;14.61;43.90;101304.03;4993426;28;11156;-73
2021/04/01 08:05:30;;;;;;;;;;;;;;;14.74;43.64;101311.22;4956534;28;11849;-72
2021/04/01 08:08:01;;;;;;;;;;;;;;;14.76;43.89;101312.09;4992819;28;6816;-73
2021/04/01 08:10:34;;;;;;;;;;;;;;;14.78;44.07;101314.75;5001107;28;7604;-74
2021/04/01 08:13:04;;;;;;;;;;;;;;;14.93;43.54;101312.34;4983308;28;7727;-74
2021/04/01 08:15:42;;;;;;;;;;;;;;;14.94;43.43;101311.50;4979912;28;7310;-74
2021/04/01 08:20:38;;;;;;;;;;;;;;;15.06;43.60;101324.75;4980499;28;7215;-73
2021/04/01 08:23:17;;;;;;;;;;;;;;;15.11;43.50;101316.97;4963540;28;7176;-73
2021/04/01 08:28:46;;;;;;;;;;;;;;;15.25;42.79;101314.56;4974512;28;11377;-74
2021/04/01 08:33:55;;;;;;;;;;;;;;;15.37;42.95;101312.06;4997029;28;7534;-74
2021/04/01 08:36:21;;;;;;;;;;;;;;;15.63;43.19;101321.19;4987775;28;11148;-73
2021/04/01 08:38:47;;;;;;;;;;;;;;;16.50;47.08;101316.78;5012158;28;7290;-74
2021/04/01 08:41:33;;;;;;;;;;;;;;;16.79;47.00;101313.53;4983209;28;7094;-74
2021/04/01 08:44:35;;;;;;;;;;;;;;;16.99;45.97;101309.28;5010709;28;11169;-74
2021/04/01 08:47:03;;;;;;;;;;;;;;;17.17;46.24;101314.63;4980480;28;10994;-76
2021/04/01 08:49:48;;;;;;;;;;;;;;;17.23;46.25;101321.69;4979685;28;7219;-77
2021/04/01 08:52:38;;;;;;;;;;;;;;;17.32;46.01;101325.22;4980155;28;7356;-74
2021/04/01 08:55:21;;;;;;;;;;;;;;;17.52;45.65;101321.78;4971169;28;11127;-74
2021/04/01 08:58:01;;;;;;;;;;;;;;;17.58;45.39;101319.19;4970873;28;11353;-74
2021/04/01 09:00:29;;;;;;;;;;;;;;;17.71;45.11;101310.50;4976440;28;11101;-74
2021/04/01 09:02:55;;;;;;;;;;;;;;;17.84;44.86;101312.31;4978559;28;7559;-73
2021/04/01 09:05:21;;;;;;;;;;;;;;;17.94;44.84;101307.94;4977674;28;8074;-74
2021/04/01 09:07:48;;;;;;;;;;;;;;;18.06;44.28;101307.09;4987166;28;7323;-74
2021/04/01 09:10:19;;;;;;;;;;;;;;;18.19;44.13;101304.47;4970930;28;7466;-75
2021/04/01 09:12:51;;;;;;;;;;;;;;;18.28;43.85;101298.34;4998496;28;6863;-75
2021/04/01 09:15:23;;;;;;;;;;;;;;;18.40;43.72;101297.47;4983826;28;6965;-75
2021/04/01 09:17:51;;;;;;;;;;;;;;;18.49;43.57;101295.72;4989728;28;11488;-74
2021/04/01 09:20:24;;;;;;;;;;;;;;;18.66;42.78;101295.75;4955424;28;11182;-74
2021/04/01 09:22:54;;;;;;;;;;;;;;;18.77;42.40;101290.44;4999771;28;12155;-75
2021/04/01 09:25:21;;;;;;;;;;;;;;;18.89;42.40;101298.34;4974693;28;11125;-74
2021/04/01 09:27:50;;;;;;;;;;;;;;;19.00;42.28;101296.53;4984559;28;7351;-74
2021/04/01 09:30:17;;;;;;;;;;;;;;;19.12;41.89;101296.50;4975668;28;7890;-74
2021/04/01 09:32:43;;;;;;;;;;;;;;;19.23;41.72;101293.84;4995999;28;7209;-73
2021/04/01 09:35:09;;;;;;;;;;;;;;;19.30;41.70;101294.69;4981566;28;7093;-74
2021/04/01 09:37:35;;;;;;;;;;;;;;;19.40;41.28;101296.41;4982260;28;7209;-74
2021/04/01 09:40:08;;;;;;;;;;;;;;;19.57;40.89;101294.59;5010959;28;6986;-74
2021/04/01 09:42:42;;;;;;;;;;;;;;;19.69;40.82;101293.66;4970650;28;7624;-74
2021/04/01 09:45:08;;;;;;;;;;;;;;;19.81;40.67;101296.22;4997275;28;6974;-74
2021/04/01 09:47:45;;;;;;;;;;;;;;;19.91;40.17;101284.75;4980337;28;7160;-74
2021/04/01 09:50:11;;;;;;;;;;;;;;;20.02;40.09;101282.00;4991844;28;6961;-75
2021/04/01 09:52:38;;;;;;;;;;;;;;;20.12;39.68;101277.56;4978072;28;7190;-74
2021/04/01 09:55:06;;;;;;;;;;;;;;;20.22;39.37;101274.88;4994122;28;7619;-75
2021/04/01 09:57:53;;;;;;;;;;;;;;;20.32;38.99;101276.53;4979268;28;7644;-75
2021/04/01 10:00:37;;;;;;;;;;;;;;;20.44;39.02;101285.25;5008032;28;7370;-74
2021/04/01 10:03:12;;;;;;;;;;;;;;;20.57;38.72;101281.59;4983725;28;11259;-74
2021/04/01 10:05:44;;;;;;;;;;;;;;;20.63;38.26;101281.56;5008916;28;6950;-75
2021/04/01 10:08:26;;;;;;;;;;;;;;;20.75;38.11;101275.28;4977834;28;7197;-74
2021/04/01 10:10:53;;;;;;;;;;;;;;;20.84;38.12;101276.06;4978521;28;11488;-75
2021/04/01 10:13:26;;;;;;;;;;;;;;;20.94;37.61;101279.47;4991954;28;6970;-74
2021/04/01 10:15:53;;;;;;;;;;;;;;;21.08;37.79;101274.91;5009363;28;11249;-75
2021/04/01 10:18:28;;;;;;;;;;;;;;;21.15;37.61;101275.72;4974375;28;6807;-74
2021/04/01 10:21:05;;;;;;;;;;;;;;;21.21;37.06;101287.06;4993704;28;11136;-74
2021/04/01 10:23:44;;;;;;;;;;;;;;;21.34;36.89;101287.84;4978041;28;11329;-74
2021/04/01 10:26:10;;;;;;;;;;;;;;;21.40;37.04;101281.59;4994502;28;7242;-73
2021/04/01 10:28:41;;;;;;;;;;;;;;;21.50;36.79;101265.59;4993177;28;7502;-73
2021/04/01 10:31:12;;;;;;;;;;;;;;;21.57;36.63;101271.66;4979830;28;7131;-72
2021/04/01 10:34:00;;;;;;;;;;;;;;;21.67;36.03;101264.50;4977825;28;7246;-73
2021/04/01 10:36:28;;;;;;;;;;;;;;;21.78;36.50;101270.50;4988187;28;11350;-73
2021/04/01 10:38:59;;;;;;;;;;;;;;;21.80;35.91;101266.94;4978099;28;11846;-73
2021/04/01 10:41:25;;;;;;;;;;;;;;;21.92;36.25;101260.59;4978956;28;12922;-73
2021/04/01 10:43:50;;;;;;;;;;;;;;;22.01;35.35;101260.44;4990111;28;7302;-74
2021/04/01 10:46:19;;;;;;;;;;;;;;;22.09;35.86;101260.38;5005371;28;7087;-73
2021/04/01 10:48:48;;;;;;;;;;;;;;;22.20;35.18;101252.25;4978043;28;7459;-74
2021/04/01 10:51:17;;;;;;;;;;;;;;;22.25;34.81;101250.41;4977282;28;7431;-74
2021/04/01 10:53:43;;;;;;;;;;;;;;;22.30;35.28;101253.84;4976188;28;7321;-73
2021/04/01 10:56:09;;;;;;;;;;;;;;;22.41;34.98;101254.50;4979778;28;6812;-73
2021/04/01 10:58:36;;;;;;;;;;;;;;;22.36;35.23;101256.38;4979321;28;6824;-74
2021/04/01 11:01:02;;;;;;;;;;;;;;;22.51;34.86;101248.19;4993074;28;6815;-74
2021/04/01 11:03:30;;;;;;;;;;;;;;;22.61;34.79;101243.56;4978422;28;7063;-74
2021/04/01 11:05:56;;;;;;;;;;;;;;;22.74;35.32;101255.69;4979368;28;7004;-74
2021/04/01 11:08:22;;;;;;;;;;;;;;;22.60;34.81;101241.81;4977036;28;6987;-74
2021/04/01 11:10:54;;;;;;;;;;;;;;;22.64;33.42;101236.47;4969646;28;7704;-74
2021/04/01 11:13:20;;;;;;;;;;;;;;;22.59;34.19;101246.25;4962036;28;7051;-74
2021/04/01 11:15:46;;;;;;;;;;;;;;;22.75;33.48;101238.91;4991425;28;7210;-73
2021/04/01 11:18:19;;;;;;;;;;;;;;;23.00;33.59;101244.59;4962912;28;7511;-74
2021/04/01 11:20:48;;;;;;;;;;;;;;;23.06;33.17;101241.84;4975199;28;7222;-73
2021/04/01 11:23:19;;;;;;;;;;;;;;;23.19;33.35;101232.72;4961552;28;7195;-74
2021/04/01 11:26:00;;;;;;;;;;;;;;;23.18;34.11;101248.66;4980209;28;6812;-73
2021/04/01 11:28:33;;;;;;;;;;;;;;;23.44;33.59;101240.19;4980080;28;11318;-72
2021/04/01 11:30:59;;;;;;;;;;;;;;;23.56;33.02;101234.56;4994897;28;11449;-73
2021/04/01 11:33:25;;;;;;;;;;;;;;;23.57;33.25;101233.72;5007114;28;7577;-73
2021/04/01 11:38:44;;;;;;;;;;;;;;;23.69;33.10;101230.78;4972966;28;12598;-73
2021/04/01 11:41:15;;;;;;;;;;;;;;;23.82;33.32;101237.53;4978737;28;7323;-74
2021/04/01 11:43:40;;;;;;;;;;;;;;;24.04;33.55;101234.38;4979075;28;7461;-73
2021/04/01 11:46:16;;;;;;;;;;;;;;;24.11;33.20;101230.66;4978627;28;7439;-73
2021/04/01 11:48:41;;;;;;;;;;;;;;;24.15;33.13;101230.53;4974110;28;6804;-72
2021/04/01 11:51:07;;;;;;;;;;;;;;;24.32;33.06;101231.94;4975100;28;6842;-72
2021/04/01 11:53:33;;;;;;;;;;;;;;;24.45;33.47;101223.59;5007608;28;7172;-72
2021/04/01 11:55:59;;;;;;;;;;;;;;;24.57;34.27;101230.34;4963533;28;7220;-73
2021/04/01 11:58:24;;;;;;;;;;;;;;;24.57;33.24;101225.91;4973575;28;11240;-73
2021/04/01 12:01:01;;;;;;;;;;;;;;;24.62;32.25;101230.22;5008461;28;7047;-72
2021/04/01 12:04:07;;;;;;;;;;;;;;;24.76;33.73;101220.97;4989642;28;11349;-72
2021/04/01 12:06:23;;;;;;;;;;;;;;;24.82;32.99;101223.44;4988609;28;11501;-72
2021/04/01 12:08:49;;;;;;;;;;;;;;;24.94;32.23;101222.25;4979324;28;7136;-73
2021/04/01 12:11:14;;;;;;;;;;;;;;;25.06;33.33;101210.44;4963956;28;6800;-74
2021/04/01 12:13:40;;;;;;;;;;;;;;;25.28;32.03;101221.28;4979541;28;7815;-72
2021/04/01 12:16:16;;;;;;;;;;;;;;;25.36;32.26;101216.59;4981378;28;7341;-73
2021/04/01 12:18:42;;;;;;;;;;;;;;;25.45;32.04;101201.25;4976090;28;7589;-72
2021/04/01 12:21:07;;;;;;;;;;;;;;;25.53;32.70;101203.66;4984579;28;6951;-72
2021/04/01 12:23:49;;;;;;;;;;;;;;;25.63;32.14;101205.13;4988078;28;6783;-73
2021/04/01 12:26:15;;;;;;;;;;;;;;;25.87;32.27;101194.63;4984977;28;7163;-72
2021/04/01 12:28:41;;;;;;;;;;;;;;;25.98;32.79;101197.78;4981948;28;6788;-72
2021/04/01 12:31:12;;;;;;;;;;;;;;;25.87;31.93;101197.28;4984576;28;6820;-72
2021/04/01 12:33:51;;;;;;;;;;;;;;;26.04;31.67;101200.28;4981547;28;7525;-74
2021/04/01 12:36:17;;;;;;;;;;;;;;;26.02;28.66;101199.44;4983950;28;6835;-74
2021/04/01 12:38:45;;;;;;;;;;;;;;;26.12;28.52;101192.88;4981960;28;6816;-74
2021/04/01 12:41:23;;;;;;;;;;;;;;;26.34;28.96;101206.31;4985663;28;7261;-74
2021/04/01 12:43:49;;;;;;;;;;;;;;;26.43;29.79;101190.06;4980426;28;7430;-74
2021/04/01 12:46:14;;;;;;;;;;;;;;;26.52;29.20;101200.38;4983781;28;7439;-74
2021/04/01 12:48:40;;;;;;;;;;;;;;;26.41;30.45;101197.22;4983938;28;7164;-74
2021/04/01 12:51:06;;;;;;;;;;;;;;;26.54;29.55;101203.00;4985505;28;6873;-74
2021/04/01 12:53:32;;;;;;;;;;;;;;;26.64;29.36;101196.41;4982105;28;7208;-74
2021/04/01 12:56:21;;;;;;;;;;;;;;;26.96;29.68;101190.75;4969676;28;8063;-74
2021/04/01 12:58:53;;;;;;;;;;;;;;;27.17;28.91;101198.91;5015758;28;12895;-74
2021/04/01 13:01:30;;;;;;;;;;;;;;;27.13;29.31;101208.81;4984058;28;6823;-74
2021/04/01 13:03:58;;;;;;;;;;;;;;;27.16;29.76;101205.16;4982231;28;11317;-74
